DNMM/LOS METAR and TAF weather

Enter ICAO airport designator
Station Type Date Time Source
DNMM METAR 2019/10/16 19:00 UTC NOAA

DNMM 161900Z VRB02KT 9999 SCT011 FEW020CB 27/24 Q1013 TEMPO TS


Station Type Date Time Source
DNMM Decoded METAR 2019/10/16 19:00 UTC NOAA

Lagos / Ikeja, Nigeria (DNMM) 06-35N 003-20E 38M
Oct 16, 2019 - 03:00 PM EDT / 2019.10.16 1900 UTC
Wind: Variable at 2 MPH (2 KT):0
Visibility: greater than 7 mile(s):0
Sky conditions: partly cloudy
Weather: Cumulonimbus clouds observed
Temperature: 80 F (27 C)
Dew Point: 75 F (24 C)
Relative Humidity: 83%
Pressure (altimeter): 29.91 in. Hg (1013 hPa)
ob: DNMM 161900Z VRB02KT 9999 SCT011 FEW020CB 27/24 Q1013 TEMPO TS
cycle: 19

Station Type Date Time Source
DNMM TAF 2019/10/16 18:21 UTC NOAA

TAF DNMM 161700Z 1618/1724 VRB02KT 9999 FEW011
TEMPO 1619/1623 TS FEW011 FEW020CB PROB30
TEMPO 1705/1707 5000 BR
BECMG 1708/1710 24010KT BKN013 FEW020CB

Example: see airport list